createdAt,value
2018-11-02T00:01:08.576Z,99.90
2018-11-02T00:03:39.523Z,99.90
2018-11-02T00:06:10.525Z,99.90
2018-11-02T00:08:41.640Z,99.90
2018-11-02T00:11:13.324Z,99.90
2018-11-02T00:13:44.559Z,99.90
2018-11-02T00:16:15.826Z,99.90
2018-11-02T00:18:47.485Z,99.90
2018-11-02T00:21:18.803Z,99.90
2018-11-02T00:23:50.148Z,99.90
2018-11-02T00:26:21.066Z,99.90
2018-11-02T00:28:52.319Z,99.90
2018-11-02T00:31:23.965Z,99.90
2018-11-02T00:33:54.863Z,99.90
2018-11-02T00:36:25.994Z,99.90
2018-11-02T00:38:58.051Z,99.90
2018-11-02T00:41:29.021Z,99.90
2018-11-02T00:44:00.266Z,99.90
2018-11-02T00:46:31.452Z,99.90
2018-11-02T00:49:02.749Z,99.90
2018-11-02T00:51:33.814Z,99.90
2018-11-02T00:54:04.803Z,99.90
2018-11-02T00:56:35.851Z,99.90
2018-11-02T00:59:06.906Z,99.90
2018-11-02T01:01:38.807Z,99.90
2018-11-02T01:04:09.847Z,99.90
2018-11-02T01:06:42.012Z,99.90
2018-11-02T01:09:15.432Z,99.90
2018-11-02T01:11:46.842Z,99.90
2018-11-02T01:14:18.364Z,99.90
2018-11-02T01:16:49.328Z,99.90
2018-11-02T01:19:25.608Z,99.90
2018-11-02T01:21:56.977Z,99.90
2018-11-02T01:24:27.908Z,99.90
2018-11-02T01:26:58.979Z,99.90
2018-11-02T01:29:30.394Z,99.90
2018-11-02T01:32:01.362Z,99.90
2018-11-02T01:34:32.277Z,99.90
2018-11-02T01:37:03.252Z,99.90
2018-11-02T01:39:34.696Z,99.90
2018-11-02T01:42:06.418Z,99.90
2018-11-02T01:44:37.755Z,99.90
2018-11-02T01:47:08.894Z,99.90
2018-11-02T01:49:39.786Z,99.90
2018-11-02T01:52:10.712Z,99.90
2018-11-02T01:54:41.906Z,99.90
2018-11-02T01:57:12.808Z,99.90
2018-11-02T01:59:43.764Z,99.90
2018-11-02T02:02:14.940Z,99.90
2018-11-02T02:04:46.631Z,99.90
2018-11-02T02:07:17.512Z,99.90
2018-11-02T02:09:48.736Z,99.90
2018-11-02T02:12:19.625Z,99.90
2018-11-02T02:14:50.542Z,99.90
2018-11-02T02:17:21.455Z,99.90
2018-11-02T02:19:52.627Z,99.90
2018-11-02T02:22:23.874Z,99.90
2018-11-02T02:24:55.151Z,99.90
2018-11-02T02:27:26.070Z,99.90
2018-11-02T02:29:57.631Z,99.90
2018-11-02T02:32:28.542Z,99.90
2018-11-02T02:34:59.540Z,99.90
2018-11-02T02:37:30.399Z,99.90
2018-11-02T02:40:02.151Z,99.90
2018-11-02T02:42:33.059Z,99.90
2018-11-02T02:45:03.974Z,99.90
2018-11-02T02:47:34.904Z,99.90
2018-11-02T02:50:07.335Z,99.90
2018-11-02T02:52:38.234Z,99.90
2018-11-02T02:55:09.528Z,99.90
2018-11-02T02:57:41.012Z,99.90
2018-11-02T03:00:13.980Z,99.90
2018-11-02T03:02:45.031Z,99.90
2018-11-02T03:05:16.219Z,99.90
2018-11-02T03:07:47.379Z,99.90
2018-11-02T03:10:18.363Z,99.90
2018-11-02T03:12:50.069Z,99.90
2018-11-02T03:15:21.248Z,99.90
2018-11-02T03:17:52.422Z,99.90
2018-11-02T03:20:23.351Z,99.90
2018-11-02T03:22:54.218Z,99.90
2018-11-02T03:25:25.435Z,99.90
2018-11-02T03:27:56.614Z,99.90
2018-11-02T03:30:27.609Z,99.90
2018-11-02T03:32:58.481Z,99.90
2018-11-02T03:35:29.395Z,99.90
2018-11-02T03:38:00.334Z,99.90
2018-11-02T03:40:31.627Z,99.90
2018-11-02T03:43:02.515Z,99.90
2018-11-02T03:45:33.422Z,99.90
2018-11-02T03:48:04.593Z,99.90
2018-11-02T03:50:35.519Z,99.90
2018-11-02T03:53:06.417Z,99.90
2018-11-02T03:55:37.364Z,99.90
2018-11-02T03:58:08.231Z,99.90
2018-11-02T04:00:41.051Z,99.90
2018-11-02T04:03:12.298Z,99.90
2018-11-02T04:05:43.199Z,99.90
2018-11-02T04:08:14.086Z,99.90
2018-11-02T04:10:45.980Z,99.90
2018-11-02T04:13:16.878Z,99.90
2018-11-02T04:15:47.751Z,99.90
2018-11-02T04:18:18.690Z,99.90
2018-11-02T04:20:49.584Z,99.90
2018-11-02T04:23:20.455Z,99.90
2018-11-02T04:25:51.716Z,99.90
2018-11-02T04:28:22.548Z,99.90
2018-11-02T04:30:53.444Z,99.90
2018-11-02T04:33:24.391Z,99.90
2018-11-02T04:35:55.273Z,99.90
2018-11-02T04:38:26.166Z,99.90
2018-11-02T04:40:57.114Z,99.90
2018-11-02T04:43:28.039Z,99.90
2018-11-02T04:45:59.180Z,99.90
2018-11-02T04:48:30.126Z,99.90
2018-11-02T04:51:01.058Z,99.90
2018-11-02T04:53:32.164Z,99.90
2018-11-02T04:56:03.033Z,99.90
2018-11-02T04:58:34.231Z,99.90
2018-11-02T05:01:05.104Z,99.90
2018-11-02T05:03:35.971Z,99.90
2018-11-02T05:06:07.112Z,99.90
2018-11-02T05:08:37.981Z,99.90
2018-11-02T05:11:09.427Z,99.90
2018-11-02T05:13:40.332Z,99.90
2018-11-02T05:16:11.209Z,99.90
2018-11-02T05:18:42.376Z,99.90
2018-11-02T05:21:13.647Z,99.90
2018-11-02T05:23:44.781Z,99.90
2018-11-02T05:26:15.743Z,99.90
2018-11-02T05:28:46.835Z,99.90
2018-11-02T05:31:17.723Z,99.90
2018-11-02T05:33:48.918Z,99.90
2018-11-02T05:36:20.062Z,99.90
2018-11-02T05:38:50.950Z,99.90
2018-11-02T05:41:22.266Z,99.90
2018-11-02T05:43:53.368Z,99.90
2018-11-02T05:46:24.321Z,99.90
2018-11-02T05:48:55.273Z,99.90
2018-11-02T05:51:26.284Z,99.90
2018-11-02T05:53:57.248Z,99.90
2018-11-02T05:56:28.277Z,99.90
2018-11-02T05:59:00.131Z,99.90
2018-11-02T06:01:31.321Z,99.90
2018-11-02T06:04:02.162Z,99.90
2018-11-02T06:06:33.258Z,99.90
2018-11-02T06:09:04.618Z,99.90
2018-11-02T06:11:35.692Z,99.90
2018-11-02T06:14:06.717Z,99.90
2018-11-02T06:16:37.694Z,99.90
2018-11-02T06:19:08.785Z,99.90
2018-11-02T06:21:39.722Z,99.90
2018-11-02T06:24:10.744Z,99.90
2018-11-02T06:26:41.803Z,99.90
2018-11-02T06:29:12.840Z,99.90
2018-11-02T06:31:44.251Z,99.90
2018-11-02T06:34:15.307Z,99.90
2018-11-02T06:36:46.654Z,99.90
2018-11-02T06:39:17.606Z,99.90
2018-11-02T06:41:48.798Z,99.90
2018-11-02T06:44:19.726Z,99.90
2018-11-02T06:46:50.802Z,99.90
2018-11-02T06:49:21.841Z,99.90
2018-11-02T06:51:52.788Z,99.90
2018-11-02T06:54:23.755Z,99.90
2018-11-02T06:56:55.179Z,99.90
2018-11-02T06:59:26.315Z,99.90
2018-11-02T07:01:57.301Z,99.90
2018-11-02T07:04:28.747Z,99.90
2018-11-02T07:06:59.762Z,99.90
2018-11-02T07:09:31.172Z,99.90
2018-11-02T07:12:02.220Z,99.90
2018-11-02T07:14:33.468Z,99.90
2018-11-02T07:17:04.385Z,99.90
2018-11-02T07:19:35.662Z,99.90
2018-11-02T07:22:07.075Z,99.90
2018-11-02T07:24:38.168Z,99.90
2018-11-02T07:27:09.263Z,99.90
2018-11-02T07:29:40.267Z,99.90
2018-11-02T07:32:11.296Z,99.90
2018-11-02T07:34:42.399Z,99.90
2018-11-02T07:37:13.303Z,99.90
2018-11-02T07:39:44.366Z,99.90
2018-11-02T07:42:15.389Z,99.90
2018-11-02T07:44:46.573Z,99.90
2018-11-02T07:47:17.525Z,99.90
2018-11-02T07:49:48.916Z,99.90
2018-11-02T07:52:19.867Z,99.90
2018-11-02T07:54:51.150Z,99.90
2018-11-02T07:57:22.083Z,99.90
2018-11-02T07:59:53.066Z,99.90
2018-11-02T08:02:24.230Z,99.90
2018-11-02T08:04:55.232Z,99.90
2018-11-02T08:07:26.540Z,99.90
2018-11-02T08:09:58.012Z,99.90
2018-11-02T08:12:29.395Z,99.90
2018-11-02T08:15:00.545Z,99.90
2018-11-02T08:17:31.625Z,99.90
2018-11-02T08:20:02.592Z,99.90
2018-11-02T08:22:33.541Z,99.90
2018-11-02T08:25:04.604Z,99.90
2018-11-02T08:27:35.536Z,99.90
2018-11-02T08:30:06.965Z,99.90
2018-11-02T08:32:38.265Z,99.90
2018-11-02T08:35:12.417Z,97.20
2018-11-02T08:37:43.749Z,95.20
2018-11-02T08:40:14.946Z,93.50
2018-11-02T08:42:45.992Z,94.30
2018-11-02T08:45:17.065Z,93.40
2018-11-02T08:47:48.880Z,92.90
2018-11-02T08:50:19.899Z,92.50
2018-11-02T08:52:50.921Z,90.30
2018-11-02T08:55:22.004Z,87.90
2018-11-02T08:57:53.144Z,87.30
2018-11-02T09:00:24.036Z,86.00
2018-11-02T09:02:55.118Z,88.20
2018-11-02T09:05:26.076Z,88.90
2018-11-02T09:07:57.217Z,88.80
2018-11-02T09:10:28.174Z,86.90
2018-11-02T09:12:59.276Z,87.40
2018-11-02T09:15:31.951Z,88.40
2018-11-02T09:18:01.200Z,89.80
2018-11-02T09:20:32.470Z,89.70
2018-11-02T09:23:03.555Z,90.10
2018-11-02T09:25:34.889Z,91.80
2018-11-02T09:28:06.401Z,92.20
2018-11-02T09:30:37.408Z,92.20
2018-11-02T09:33:08.494Z,92.20
2018-11-02T09:35:39.651Z,92.10
2018-11-02T09:38:10.682Z,91.30
2018-11-02T09:40:41.624Z,91.60
2018-11-02T09:43:12.752Z,90.30
2018-11-02T09:45:43.798Z,87.20
2018-11-02T09:48:15.085Z,84.40
2018-11-02T09:50:46.126Z,82.50
2018-11-02T09:53:17.155Z,81.20
2018-11-02T09:55:48.464Z,80.30
2018-11-02T09:58:19.462Z,77.20
2018-11-02T10:00:50.901Z,75.00
2018-11-02T10:03:21.949Z,71.90
2018-11-02T10:05:52.917Z,70.80
2018-11-02T10:08:23.984Z,71.60
2018-11-02T10:10:54.971Z,73.40
2018-11-02T10:13:26.053Z,74.60
2018-11-02T10:15:57.366Z,76.30
2018-11-02T10:18:28.752Z,79.10
2018-11-02T10:20:59.706Z,80.20
2018-11-02T10:23:31.171Z,81.90
2018-11-02T10:26:02.544Z,82.00
2018-11-02T10:28:33.741Z,84.00
2018-11-02T10:31:04.976Z,84.10
2018-11-02T10:33:36.031Z,84.70
2018-11-02T10:36:08.470Z,86.90
2018-11-02T10:38:39.377Z,85.40
2018-11-02T10:41:12.358Z,85.60
2018-11-02T10:43:43.562Z,86.70
2018-11-02T10:46:14.573Z,86.60
2018-11-02T10:48:46.062Z,87.60
2018-11-02T10:51:17.455Z,88.20
2018-11-02T10:53:48.353Z,88.80
2018-11-02T10:56:19.347Z,86.50
2018-11-02T10:58:50.232Z,86.10
2018-11-02T11:01:38.390Z,84.30
2018-11-02T11:04:09.363Z,81.80
2018-11-02T11:06:40.351Z,81.80
2018-11-02T11:09:13.336Z,82.10
2018-11-02T11:11:44.531Z,81.80
2018-11-02T11:14:15.352Z,82.60
2018-11-02T11:16:46.265Z,82.90
2018-11-02T11:19:17.924Z,82.60
2018-11-02T11:21:49.010Z,82.10
2018-11-02T11:24:20.031Z,81.70
2018-11-02T11:26:51.098Z,80.30
2018-11-02T11:29:22.157Z,79.70
2018-11-02T11:31:52.966Z,80.30
2018-11-02T11:34:23.944Z,94.20
2018-11-02T11:36:54.938Z,97.50
2018-11-02T11:39:26.262Z,98.20
2018-11-02T11:41:57.511Z,99.90
2018-11-02T11:44:28.507Z,99.90
2018-11-02T11:46:59.900Z,99.40
2018-11-02T11:49:30.903Z,99.90
2018-11-02T11:52:01.795Z,99.90
2018-11-02T11:54:32.793Z,99.90
2018-11-02T11:57:03.657Z,99.90
2018-11-02T11:59:34.911Z,97.40
2018-11-02T12:02:05.996Z,99.90
2018-11-02T12:04:36.894Z,99.90
2018-11-02T12:07:07.881Z,99.90
2018-11-02T12:09:38.876Z,96.30
2018-11-02T12:12:09.997Z,97.10
2018-11-02T12:14:40.909Z,96.80
2018-11-02T12:17:12.116Z,99.30
2018-11-02T12:19:43.574Z,99.90
2018-11-02T12:22:14.626Z,99.00
2018-11-02T12:24:45.563Z,99.90
2018-11-02T12:27:16.810Z,99.90
2018-11-02T12:29:48.012Z,99.90
2018-11-02T12:32:18.960Z,99.40
2018-11-02T12:34:50.268Z,96.30
2018-11-02T12:37:21.134Z,96.40
2018-11-02T12:39:52.043Z,98.30
2018-11-02T12:42:23.327Z,99.90
2018-11-02T12:44:54.189Z,98.50
2018-11-02T12:47:25.143Z,98.50
2018-11-02T12:49:56.149Z,99.90
2018-11-02T12:52:27.020Z,97.00
2018-11-02T12:54:58.006Z,98.00
2018-11-02T12:57:28.997Z,97.40
2018-11-02T12:59:59.858Z,97.30
2018-11-02T13:02:31.505Z,97.20
2018-11-02T13:05:02.436Z,95.30
2018-11-02T13:07:33.652Z,96.30
2018-11-02T13:10:04.536Z,98.00
2018-11-02T13:12:36.338Z,94.30
2018-11-02T13:15:08.953Z,96.10
2018-11-02T13:17:40.562Z,94.10
2018-11-02T13:20:12.021Z,93.00
2018-11-02T13:22:43.737Z,94.20
2018-11-02T13:25:18.754Z,92.20
2018-11-02T13:27:50.443Z,91.30
2018-11-02T13:30:21.598Z,93.60
2018-11-02T13:32:52.507Z,94.00
2018-11-02T13:35:23.820Z,94.90
2018-11-02T13:37:54.730Z,95.10
2018-11-02T13:40:25.700Z,94.50
2018-11-02T13:42:56.970Z,95.20
2018-11-02T13:45:28.701Z,95.10
2018-11-02T13:47:59.970Z,94.50
2018-11-02T13:50:31.013Z,94.80
2018-11-02T13:53:01.863Z,92.60
2018-11-02T13:55:33.366Z,94.00
2018-11-02T13:58:04.317Z,93.20
2018-11-02T14:00:35.214Z,94.10
2018-11-02T14:03:06.230Z,93.60
2018-11-02T14:05:37.297Z,93.30
2018-11-02T14:08:08.214Z,93.50
2018-11-02T14:10:39.145Z,94.10
2018-11-02T14:13:10.421Z,94.00
2018-11-02T14:15:42.185Z,94.00
2018-11-02T14:18:13.200Z,92.50
2018-11-02T14:20:44.190Z,94.00
2018-11-02T14:23:15.117Z,93.70
2018-11-02T14:25:46.059Z,94.10
2018-11-02T14:28:17.031Z,93.80
2018-11-02T14:30:47.943Z,93.30
2018-11-02T14:33:18.900Z,94.00
2018-11-02T14:35:49.786Z,94.50
2018-11-02T14:38:20.681Z,94.10
2018-11-02T14:40:51.631Z,93.60
2018-11-02T14:43:22.536Z,93.10
2018-11-02T14:45:53.548Z,93.60
2018-11-02T14:48:24.452Z,93.80
2018-11-02T14:50:55.501Z,93.80
2018-11-02T14:53:26.469Z,93.70
2018-11-02T14:55:57.404Z,93.60
2018-11-02T14:58:28.356Z,94.00
2018-11-02T15:00:59.654Z,94.20
2018-11-02T15:03:30.663Z,94.00
2018-11-02T15:06:01.612Z,94.30
2018-11-02T15:08:32.571Z,94.40
2018-11-02T15:11:03.456Z,93.90
2018-11-02T15:13:34.371Z,94.00
2018-11-02T15:16:05.328Z,95.20
2018-11-02T15:18:36.260Z,94.50
2018-11-02T15:21:07.747Z,94.80
2018-11-02T15:23:38.791Z,95.00
2018-11-02T15:26:10.076Z,95.40
2018-11-02T15:28:41.037Z,95.10
2018-11-02T15:31:11.981Z,95.80
2018-11-02T15:33:42.997Z,96.30
2018-11-02T15:36:13.975Z,96.90
2018-11-02T15:38:45.321Z,97.20
2018-11-02T15:41:16.238Z,97.10
2018-11-02T15:43:47.226Z,97.80
2018-11-02T15:46:18.317Z,98.20
2018-11-02T15:48:49.626Z,98.40
2018-11-02T15:51:20.864Z,98.60
2018-11-02T15:53:51.794Z,98.60
2018-11-02T15:56:22.713Z,98.90
2018-11-02T15:58:53.650Z,99.10
2018-11-02T16:01:24.539Z,99.20
2018-11-02T16:03:55.442Z,99.60
2018-11-02T16:06:26.406Z,99.90
2018-11-02T16:08:57.339Z,99.90
2018-11-02T16:11:28.293Z,99.90
2018-11-02T16:13:59.195Z,99.90
2018-11-02T16:16:30.521Z,99.90
2018-11-02T16:19:01.615Z,99.90
2018-11-02T16:21:32.518Z,99.90
2018-11-02T16:24:03.527Z,99.90
2018-11-02T16:26:34.501Z,99.90
2018-11-02T16:29:05.824Z,99.90
2018-11-02T16:31:36.971Z,99.90
2018-11-02T16:34:08.017Z,99.90
2018-11-02T16:36:38.969Z,99.90
2018-11-02T16:39:13.871Z,99.90
2018-11-02T16:41:44.819Z,99.90
2018-11-02T16:44:16.005Z,99.90
2018-11-02T16:46:47.004Z,99.90
2018-11-02T16:49:17.930Z,99.90
2018-11-02T16:51:48.832Z,99.90
2018-11-02T16:54:20.172Z,99.90
2018-11-02T16:56:51.048Z,99.90
2018-11-02T16:59:21.981Z,99.90
2018-11-02T17:01:53.020Z,99.90
2018-11-02T17:04:23.960Z,99.90
2018-11-02T17:06:55.233Z,99.90
2018-11-02T17:09:26.502Z,99.90
2018-11-02T17:11:57.824Z,99.80
2018-11-02T17:14:28.790Z,99.30
2018-11-02T17:16:59.709Z,99.10
2018-11-02T17:19:30.692Z,99.30
2018-11-02T17:22:02.038Z,99.20
2018-11-02T17:24:32.911Z,99.60
2018-11-02T17:27:03.834Z,99.80
2018-11-02T17:29:35.114Z,99.90
2018-11-02T17:32:06.219Z,99.90
2018-11-02T17:34:37.136Z,99.90
2018-11-02T17:37:08.534Z,99.90
2018-11-02T17:39:39.910Z,99.90
2018-11-02T17:42:13.825Z,99.90
2018-11-02T17:44:44.853Z,99.90
2018-11-02T17:47:15.796Z,99.90
2018-11-02T17:49:46.712Z,99.90
2018-11-02T17:52:17.638Z,99.90
2018-11-02T17:54:48.599Z,99.90
2018-11-02T17:57:19.541Z,99.90
2018-11-02T17:59:50.585Z,99.90
2018-11-02T18:02:21.538Z,99.90
2018-11-02T18:04:52.843Z,99.90
2018-11-02T18:07:24.122Z,99.90
2018-11-02T18:09:55.901Z,99.90
2018-11-02T18:12:26.947Z,99.90
2018-11-02T18:14:58.259Z,99.40
2018-11-02T18:17:29.801Z,99.30
2018-11-02T18:20:01.354Z,98.90
2018-11-02T18:22:32.664Z,98.30
2018-11-02T18:25:03.642Z,98.50
2018-11-02T18:27:34.667Z,98.30
2018-11-02T18:30:06.508Z,98.30
2018-11-02T18:32:37.540Z,98.30
2018-11-02T18:35:09.310Z,98.30
2018-11-02T18:37:40.225Z,98.50
2018-11-02T18:40:13.481Z,98.00
2018-11-02T18:42:44.518Z,98.20
2018-11-02T18:45:16.171Z,98.20
2018-11-02T18:47:48.371Z,97.90
2018-11-02T18:50:20.603Z,97.60
2018-11-02T18:52:51.956Z,97.80
2018-11-02T18:55:23.219Z,97.70
2018-11-02T19:00:25.133Z,97.90
2018-11-02T19:02:56.036Z,98.20
2018-11-02T19:05:27.088Z,98.90
2018-11-02T19:07:58.297Z,98.60
2018-11-02T19:10:29.247Z,98.80
2018-11-02T19:13:00.162Z,99.00
2018-11-02T19:15:31.256Z,99.20
2018-11-02T19:18:02.148Z,99.50
2018-11-02T19:20:33.136Z,99.80
2018-11-02T19:23:04.332Z,99.90
2018-11-02T19:25:35.244Z,99.90
2018-11-02T19:28:06.172Z,99.90
2018-11-02T19:30:37.839Z,99.90
2018-11-02T19:33:08.866Z,99.90
2018-11-02T19:35:40.061Z,99.90
2018-11-02T19:38:11.209Z,99.90
2018-11-02T19:40:41.885Z,99.90
2018-11-02T19:43:12.832Z,99.90
2018-11-02T19:45:43.748Z,99.90
2018-11-02T19:48:14.705Z,99.90
2018-11-02T19:50:45.696Z,99.90
2018-11-02T19:53:16.526Z,99.90
2018-11-02T19:55:47.817Z,99.90
2018-11-02T19:58:18.707Z,99.70
2018-11-02T20:00:49.612Z,99.60
2018-11-02T20:03:20.533Z,99.60
2018-11-02T20:05:51.754Z,99.60
2018-11-02T20:08:23.096Z,99.80
2018-11-02T20:10:54.088Z,99.90
2018-11-02T20:13:25.295Z,99.90
2018-11-02T20:15:56.520Z,99.90
2018-11-02T20:18:27.426Z,99.90
2018-11-02T20:20:58.406Z,99.90
2018-11-02T20:23:29.795Z,99.90
2018-11-02T20:26:00.746Z,99.90
2018-11-02T20:28:31.647Z,99.90
2018-11-02T20:31:02.588Z,99.90
2018-11-02T20:33:33.531Z,99.90
2018-11-02T20:36:04.833Z,99.40
2018-11-02T20:38:35.778Z,99.40
2018-11-02T20:41:06.842Z,99.60
2018-11-02T20:43:37.810Z,99.90
2018-11-02T20:46:08.938Z,99.70
2018-11-02T20:48:40.298Z,99.70
2018-11-02T20:51:11.144Z,99.70
2018-11-02T20:53:42.436Z,99.40
2018-11-02T20:56:13.373Z,99.80
2018-11-02T20:58:44.279Z,99.80
2018-11-02T21:01:15.605Z,99.30
2018-11-02T21:03:46.553Z,99.20
2018-11-02T21:06:17.583Z,99.20
2018-11-02T21:08:48.599Z,99.10
2018-11-02T21:13:51.254Z,99.20
2018-11-02T21:16:22.370Z,99.00
2018-11-02T21:18:53.646Z,98.90
2018-11-02T21:21:24.600Z,98.60
2018-11-02T21:23:56.212Z,98.70
2018-11-02T21:26:27.222Z,98.60
2018-11-02T21:28:58.723Z,98.80
2018-11-02T21:31:29.649Z,98.70
2018-11-02T21:34:00.691Z,98.40
2018-11-02T21:36:31.710Z,98.00
2018-11-02T21:39:03.047Z,98.50
2018-11-02T21:41:34.368Z,98.50
2018-11-02T21:44:05.304Z,98.70
2018-11-02T21:46:36.221Z,98.70
2018-11-02T21:49:07.353Z,99.10
2018-11-02T21:51:38.331Z,98.90
2018-11-02T21:54:09.318Z,98.80
2018-11-02T21:56:40.499Z,98.60
2018-11-02T21:59:11.787Z,98.80
2018-11-02T22:01:42.714Z,98.30
2018-11-02T22:04:13.875Z,98.30
2018-11-02T22:06:44.771Z,98.60
2018-11-02T22:09:15.834Z,98.20
2018-11-02T22:11:46.791Z,98.10
2018-11-02T22:14:17.715Z,98.20
2018-11-02T22:16:48.653Z,97.90
2018-11-02T22:19:19.646Z,97.90
2018-11-02T22:21:50.508Z,97.80
2018-11-02T22:24:21.435Z,97.70
2018-11-02T22:26:52.679Z,97.50
2018-11-02T22:29:23.887Z,97.40
2018-11-02T22:31:55.245Z,97.00
2018-11-02T22:34:26.158Z,97.00
2018-11-02T22:36:57.167Z,97.10
2018-11-02T22:39:28.119Z,97.00
2018-11-02T22:41:59.105Z,96.60
2018-11-02T22:44:30.109Z,97.00
2018-11-02T22:47:01.034Z,96.90
2018-11-02T22:49:31.988Z,96.60
2018-11-02T22:52:02.972Z,96.90
2018-11-02T22:54:33.933Z,96.90
2018-11-02T22:57:04.897Z,96.90
2018-11-02T22:59:35.843Z,97.30
2018-11-02T23:02:06.951Z,96.80
2018-11-02T23:04:37.962Z,96.50
2018-11-02T23:07:09.330Z,96.60
2018-11-02T23:09:40.325Z,96.40
2018-11-02T23:12:11.395Z,96.10
2018-11-02T23:14:42.423Z,96.10
2018-11-02T23:17:13.741Z,96.00
2018-11-02T23:19:44.704Z,95.90
2018-11-02T23:22:15.593Z,95.50
2018-11-02T23:24:46.901Z,95.20
2018-11-02T23:27:17.821Z,95.80
2018-11-02T23:29:49.684Z,95.20
2018-11-02T23:32:20.932Z,95.30
2018-11-02T23:34:51.916Z,95.50
2018-11-02T23:37:22.857Z,95.60
2018-11-02T23:39:53.825Z,95.80
2018-11-02T23:42:24.796Z,95.70
2018-11-02T23:44:55.846Z,95.70
2018-11-02T23:47:26.720Z,95.40
2018-11-02T23:49:57.675Z,95.60
2018-11-02T23:52:28.617Z,95.80
2018-11-02T23:54:59.533Z,95.60
2018-11-02T23:57:30.820Z,96.10
